Geyserville, California
Current Conditions -  °F | °C
As of 4:44 AM on Sunday 21 Dec 2014 (Local Time) from KSTS Reporting Station
Haze Haze  
Wind Chill: 55°   Ceiling: 700
Heat Index: 55°   Visibility: 2.5mi
Dew Point: 55°   Wind: 0mph
Humidity: 100%   Direction: NA
Pressure: 30.24"   Gusts: NA
Location:  38.71°N, 122.91°W
Report Text: KSTS 211244Z AUTO 00000KT 2 1/2SM BR OVC007 13/13 A3024 RMK AO2 RAB1157E09 P0000
Loading
Personal Weather Stations






























Interactive Weather Map New forecast layout! Learn more

10-Day Weather Forecast

Advertisements
Track Severe Weather on mobile